sensor_id;sensor_type;location;lat;lon;timestamp;pressure;altitude;pressure_sealevel;temperature;humidity
12073;BME280;6098;49.004;8.372;2023-05-08T00:11:16;100631.06;;;16.50;100.00
12073;BME280;6098;49.004;8.372;2023-05-08T00:26:24;100638.55;;;16.52;100.00
12073;BME280;6098;49.004;8.372;2023-05-08T00:41:16;100646.36;;;16.55;100.00
12073;BME280;6098;49.004;8.372;2023-05-08T00:56:09;100646.91;;;16.61;100.00
12073;BME280;6098;49.004;8.372;2023-05-08T01:11:24;100656.41;;;16.59;100.00
12073;BME280;6098;49.004;8.372;2023-05-08T01:26:41;100650.68;;;16.58;100.00
12073;BME280;6098;49.004;8.372;2023-05-08T01:41:35;100655.06;;;16.59;100.00
12073;BME280;6098;49.004;8.372;2023-05-08T01:56:30;100653.00;;;16.64;100.00
12073;BME280;6098;49.004;8.372;2023-05-08T02:26:35;100669.08;;;16.56;100.00
12073;BME280;6098;49.004;8.372;2023-05-08T02:41:28;100683.77;;;16.49;100.00
12073;BME280;6098;49.004;8.372;2023-05-08T02:56:31;100688.31;;;16.47;100.00
12073;BME280;6098;49.004;8.372;2023-05-08T03:11:27;100674.32;;;16.42;100.00
12073;BME280;6098;49.004;8.372;2023-05-08T03:26:19;100664.59;;;16.41;100.00
12073;BME280;6098;49.004;8.372;2023-05-08T03:41:11;100680.52;;;16.43;100.00
12073;BME280;6098;49.004;8.372;2023-05-08T03:56:05;100686.03;;;16.56;100.00
12073;BME280;6098;49.004;8.372;2023-05-08T04:11:08;100694.16;;;16.62;100.00
12073;BME280;6098;49.004;8.372;2023-05-08T04:25:51;100691.70;;;16.51;100.00
12073;BME280;6098;49.004;8.372;2023-05-08T04:40:43;100688.58;;;16.58;100.00
12073;BME280;6098;49.004;8.372;2023-05-08T04:55:35;100707.09;;;16.70;100.00
12073;BME280;6098;49.004;8.372;2023-05-08T05:10:28;100731.44;;;16.80;100.00
12073;BME280;6098;49.004;8.372;2023-05-08T05:25:21;100732.41;;;16.64;100.00
12073;BME280;6098;49.004;8.372;2023-05-08T05:40:14;100738.24;;;16.71;100.00
12073;BME280;6098;49.004;8.372;2023-05-08T05:55:07;100748.61;;;16.69;100.00
12073;BME280;6098;49.004;8.372;2023-05-08T06:10:01;100752.98;;;16.78;100.00
12073;BME280;6098;49.004;8.372;2023-05-08T06:24:54;100761.66;;;16.90;100.00
12073;BME280;6098;49.004;8.372;2023-05-08T06:39:46;100770.14;;;16.82;100.00
12073;BME280;6098;49.004;8.372;2023-05-08T06:54:39;100769.72;;;16.89;100.00
12073;BME280;6098;49.004;8.372;2023-05-08T07:09:31;100770.91;;;17.07;100.00
12073;BME280;6098;49.004;8.372;2023-05-08T07:24:25;100776.70;;;17.22;100.00
12073;BME280;6098;49.004;8.372;2023-05-08T07:39:17;100784.22;;;17.15;100.00
12073;BME280;6098;49.004;8.372;2023-05-08T07:54:11;100786.64;;;17.85;100.00
12073;BME280;6098;49.004;8.372;2023-05-08T08:09:05;100798.56;;;18.44;92.06
12073;BME280;6098;49.004;8.372;2023-05-08T08:23:57;100796.09;;;18.26;92.17
12073;BME280;6098;49.004;8.372;2023-05-08T08:38:50;100792.09;;;17.98;94.66
12073;BME280;6098;49.004;8.372;2023-05-08T08:53:44;100793.70;;;18.01;94.62
12073;BME280;6098;49.004;8.372;2023-05-08T09:08:36;100805.89;;;18.13;95.74
12073;BME280;6098;49.004;8.372;2023-05-08T09:23:30;100813.98;;;18.41;94.27
12073;BME280;6098;49.004;8.372;2023-05-08T09:38:31;100820.16;;;18.49;93.29
12073;BME280;6098;49.004;8.372;2023-05-08T09:53:31;100826.48;;;18.55;89.95
12073;BME280;6098;49.004;8.372;2023-05-08T10:08:25;100833.06;;;18.43;90.17
12073;BME280;6098;49.004;8.372;2023-05-08T10:23:18;100828.55;;;18.37;91.80
12073;BME280;6098;49.004;8.372;2023-05-08T10:38:10;100825.12;;;18.41;93.09
12073;BME280;6098;49.004;8.372;2023-05-08T11:08:25;100809.52;;;18.62;93.51
12073;BME280;6098;49.004;8.372;2023-05-08T11:53:18;100799.52;;;19.03;94.46
12073;BME280;6098;49.004;8.372;2023-05-08T12:08:11;100799.67;;;18.88;93.20
12073;BME280;6098;49.004;8.372;2023-05-08T12:23:04;100795.41;;;19.11;91.75
12073;BME280;6098;49.004;8.372;2023-05-08T12:38:00;100793.83;;;19.61;92.85
12073;BME280;6098;49.004;8.372;2023-05-08T13:07:59;100790.05;;;20.32;83.61
12073;BME280;6098;49.004;8.372;2023-05-08T13:22:50;100781.30;;;20.41;79.64
12073;BME280;6098;49.004;8.372;2023-05-08T13:37:42;100777.17;;;20.48;82.29
12073;BME280;6098;49.004;8.372;2023-05-08T13:52:35;100758.77;;;20.42;80.94
12073;BME280;6098;49.004;8.372;2023-05-08T14:07:28;100763.94;;;20.75;79.18
12073;BME280;6098;49.004;8.372;2023-05-08T14:22:19;100749.53;;;20.70;79.40
12073;BME280;6098;49.004;8.372;2023-05-08T14:37:12;100729.73;;;20.94;75.74
12073;BME280;6098;49.004;8.372;2023-05-08T14:52:05;100736.66;;;20.85;75.55
12073;BME280;6098;49.004;8.372;2023-05-08T15:06:57;100725.52;;;21.25;73.48
12073;BME280;6098;49.004;8.372;2023-05-08T15:21:49;100722.84;;;21.42;71.74
12073;BME280;6098;49.004;8.372;2023-05-08T15:36:41;100725.53;;;21.13;70.86
12073;BME280;6098;49.004;8.372;2023-05-08T15:51:33;100736.66;;;20.97;72.12
12073;BME280;6098;49.004;8.372;2023-05-08T16:06:25;100745.03;;;20.64;74.83
12073;BME280;6098;49.004;8.372;2023-05-08T16:21:17;100740.80;;;20.55;74.94
12073;BME280;6098;49.004;8.372;2023-05-08T16:36:09;100729.66;;;20.42;75.49
12073;BME280;6098;49.004;8.372;2023-05-08T16:51:02;100737.28;;;20.53;76.90
12073;BME280;6098;49.004;8.372;2023-05-08T17:05:55;100735.86;;;20.49;78.08
12073;BME280;6098;49.004;8.372;2023-05-08T17:20:46;100733.29;;;20.10;79.73
12073;BME280;6098;49.004;8.372;2023-05-08T17:35:37;100745.78;;;19.87;82.43
12073;BME280;6098;49.004;8.372;2023-05-08T17:50:27;100742.48;;;19.45;82.07
12073;BME280;6098;49.004;8.372;2023-05-08T18:05:19;100742.70;;;19.16;81.76
12073;BME280;6098;49.004;8.372;2023-05-08T18:20:12;100741.42;;;19.02;82.66
12073;BME280;6098;49.004;8.372;2023-05-08T18:35:04;100753.02;;;18.96;83.17
12073;BME280;6098;49.004;8.372;2023-05-08T18:49:58;100750.69;;;18.91;84.11
12073;BME280;6098;49.004;8.372;2023-05-08T19:04:50;100754.76;;;18.90;85.01
12073;BME280;6098;49.004;8.372;2023-05-08T19:19:43;100744.70;;;18.80;86.02
12073;BME280;6098;49.004;8.372;2023-05-08T19:34:36;100748.59;;;18.69;86.32
12073;BME280;6098;49.004;8.372;2023-05-08T19:49:27;100737.67;;;18.65;85.89
12073;BME280;6098;49.004;8.372;2023-05-08T20:04:21;100753.99;;;18.55;87.19
12073;BME280;6098;49.004;8.372;2023-05-08T20:19:14;100755.50;;;18.39;88.16
12073;BME280;6098;49.004;8.372;2023-05-08T20:34:05;100758.91;;;18.34;87.72
12073;BME280;6098;49.004;8.372;2023-05-08T20:48:57;100748.82;;;18.18;89.32
12073;BME280;6098;49.004;8.372;2023-05-08T21:03:54;100733.93;;;18.06;90.52
12073;BME280;6098;49.004;8.372;2023-05-08T21:18:45;100725.98;;;18.04;90.72
12073;BME280;6098;49.004;8.372;2023-05-08T21:33:38;100731.41;;;17.96;90.81
12073;BME280;6098;49.004;8.372;2023-05-08T21:48:30;100721.08;;;17.97;90.66
12073;BME280;6098;49.004;8.372;2023-05-08T22:03:22;100717.89;;;17.98;91.44
12073;BME280;6098;49.004;8.372;2023-05-08T22:18:14;100698.66;;;17.91;92.57
12073;BME280;6098;49.004;8.372;2023-05-08T22:33:06;100690.80;;;17.81;92.95
12073;BME280;6098;49.004;8.372;2023-05-08T22:47:59;100677.75;;;17.69;94.87
12073;BME280;6098;49.004;8.372;2023-05-08T23:02:50;100659.08;;;17.53;96.46
12073;BME280;6098;49.004;8.372;2023-05-08T23:17:42;100660.81;;;17.40;97.73
12073;BME280;6098;49.004;8.372;2023-05-08T23:32:35;100636.27;;;17.25;98.36
12073;BME280;6098;49.004;8.372;2023-05-08T23:47:26;100625.92;;;17.12;99.34
